C. Innovator — 3FGA2 — position and weather

sailwx.info

Track history (hours):
 
Tides and Currents Weather Stations Pressure Air Temp Water Temp Dewpoint Dewpoint Depression Visibility Wind Speed Wind Dir Waves Ship Positions

C. Innovator

Last reported at 2017-Nov-12 03:08 UTC. Time now 2017-Nov-23 04:00 UTC.
Position N 38°10' W 030°52'.
Warning: this ship's position is 11 days out of date.

Length 333 m; draft 11.1 m.

Type: Ship. MMSI: 373838000.

Date/timePositionNaut miles runAvg speedWind from/ knotsBaromVisibWave heightAir tempDewpointWater temp
2017-Nov-12 03:08N 38°10' W 030°52'211.0
2017-Nov-12 02:57N 38°10' W 030°49'510.8
2017-Nov-12 02:30N 38°10' W 030°43'611.1
2017-Nov-12 02:00N 38°10' W 030°36'611.1
2017-Nov-12 01:30N 38°10' W 030°29'611.2
2017-Nov-12 01:00N 38°10' W 030°22'510.8
2017-Nov-12 00:30N 38°10' W 030°15'611.2
2017-Nov-12 00:00N 38°10' W 030°08'611.3
2017-Nov-11 23:30N 38°10' W 030°01'611.3
2017-Nov-11 23:00N 38°10' W 029°54'510.9
2017-Nov-11 22:30N 38°10' W 029°47'611.2
2017-Nov-11 22:00N 38°10' W 029°40'611.1
2017-Nov-11 21:30N 38°10' W 029°33'611.1
2017-Nov-11 21:01N 38°10' W 029°26'510.8
2017-Nov-11 20:30N 38°10' W 029°19'510.9
2017-Nov-11 20:00N 38°10' W 029°12'510.8
2017-Nov-11 19:30N 38°10' W 029°05'510.1
2017-Nov-11 19:00N 38°10' W 028°58'510.2
2017-Nov-11 18:30N 38°09' W 028°52'510.3
2017-Nov-11 18:00N 38°09' W 028°45'510.0
2017-Nov-11 17:30N 38°09' W 028°39'5 9.8
2017-Nov-11 17:00N 38°09' W 028°33'5 9.9
2017-Nov-11 16:30N 38°09' W 028°27'510.3
2017-Nov-11 16:00N 38°08' W 028°20'510.4
2017-Nov-11 15:30N 38°08' W 028°13'510.4
2017-Nov-11 15:00N 38°08' W 028°07'510.5
2017-Nov-11 14:30N 38°08' W 028°00'510.5
2017-Nov-11 14:00N 38°08' W 027°53'510.6
2017-Nov-11 13:30N 38°08' W 027°47'510.8
2017-Nov-11 13:00N 38°08' W 027°40'510.5
2017-Nov-11 12:30N 38°07' W 027°33'510.0
2017-Nov-11 12:00N 38°07' W 027°27'510.1
2017-Nov-11 11:30N 38°07' W 027°20'510.5
2017-Nov-11 11:00N 38°07' W 027°14'510.6
2017-Nov-11 10:30N 38°07' W 027°07'510.3
2017-Nov-11 10:00N 38°07' W 027°00'510.3
2017-Nov-11 09:30N 38°06' W 026°54'611.7
2017-Nov-11 09:00N 38°06' W 026°46'713.1
2017-Nov-11 08:30N 38°06' W 026°38'713.0
2017-Nov-11 08:00N 38°06' W 026°30'713.3
2017-Nov-11 07:30N 38°06' W 026°21'612.8
2017-Nov-11 07:01N 38°06' W 026°13'612.9
2017-Nov-11 06:30N 38°06' W 026°05'713.5
2017-Nov-11 06:00N 38°05' W 025°57'713.3
2017-Nov-11 05:30N 38°05' W 025°48'713.1
2017-Nov-11 05:00N 38°05' W 025°40'713.0
2017-Nov-11 04:30N 38°04' W 025°32'612.9
2017-Nov-11 04:00N 38°04' W 025°23'613.0
2017-Nov-11 03:30N 38°04' W 025°15'613.0
2017-Nov-11 03:00N 38°04' W 025°07'612.8
2017-Nov-11 02:30N 38°04' W 024°59'613.0
2017-Nov-11 02:01N 38°03' W 024°51'612.7
2017-Nov-11 01:30N 38°03' W 024°42'612.6
2017-Nov-11 01:00N 38°02' W 024°34'612.7
2017-Nov-11 00:30N 38°02' W 024°26'612.7
2017-Nov-11 00:00N 38°01' W 024°18'612.7
2017-Nov-10 23:30N 38°01' W 024°10'612.3
2017-Nov-10 23:00N 38°00' W 024°03'612.3
2017-Nov-10 22:30N 37°60' W 023°55'612.3
2017-Nov-10 22:00N 37°59' W 023°47'612.6
2017-Nov-10 21:30N 37°59' W 023°39'612.8
2017-Nov-10 21:00N 37°58' W 023°31'612.7
2017-Nov-10 20:30N 37°57' W 023°23'612.5
2017-Nov-10 20:01N 37°57' W 023°15'612.6
2017-Nov-10 19:30N 37°56' W 023°07'1812.6
2017-Nov-10 18:04N 37°55' W 022°44'512.7
2017-Nov-10 17:38N 37°54' W 022°37'211.9
2017-Nov-10 17:28N 37°54' W 022°35'510.8
2017-Nov-10 17:01N 37°54' W 022°29'611.0
2017-Nov-10 16:29N 37°53' W 022°21'610.9
2017-Nov-10 15:57N 37°53' W 022°14'510.9
2017-Nov-10 15:29N 37°52' W 022°08'810.9
2017-Nov-10 14:45N 37°52' W 021°58'  
2017-Nov-08 03:30N 36°17' W 009°12'5 9.9
2017-Nov-08 03:00N 36°16' W 009°06'510.0
2017-Nov-08 02:30N 36°15' W 008°60'510.0
2017-Nov-08 02:00N 36°14' W 008°54'910.1
2017-Nov-08 01:08N 36°14' W 008°43'110.1
2017-Nov-08 01:00N 36°14' W 008°41'10310.5
2017-Nov-07 15:14N 36°02' W 006°35'410.4
2017-Nov-07 14:48N 36°02' W 006°29'310.7
2017-Nov-07 14:30N 36°01' W 006°26'611.1
2017-Nov-07 14:00N 36°01' W 006°19'611.8
2017-Nov-07 13:30N 36°00' W 006°12'611.8
2017-Nov-07 13:00N 35°59' W 006°04'611.9
2017-Nov-07 12:30N 35°59' W 005°57'611.8
2017-Nov-07 12:00N 35°59' W 005°50'713.7
2017-Nov-07 11:30N 35°58' W 005°41'611.9
2017-Nov-07 11:00N 35°59' W 005°34'510.6
2017-Nov-07 10:30N 36°00' W 005°28'5 9.2
2017-Nov-07 10:00N 36°03' W 005°24'4 7.3
2017-Nov-07 09:30N 36°07' W 005°22'0 0.3
2017-Nov-07 08:47N 36°07' W 005°22'0 0.0
2017-Nov-07 08:26N 36°07' W 005°22'  
2017-Nov-02 18:10N 36°02' W 005°14'212.1
2017-Nov-02 18:00N 36°01' W 005°16'715.0
2017-Nov-02 17:31N 35°59' W 005°25'  
Track history (hours):
 
Tides and Currents Weather Stations Pressure Air Temp Water Temp Dewpoint Dewpoint Depression Visibility Wind Speed Wind Dir Waves Ship Positions

C. Innovator

Last reported at 2017-Nov-12 03:08 UTC. Time now 2017-Nov-23 04:00 UTC.
Position N 38°10' W 030°52'.
Warning: this ship's position is 11 days out of date.

Length 333 m; draft 11.1 m.

Type: Ship. MMSI: 373838000.

Date/timePositionNaut miles runAvg speedWind from/ knotsBaromVisibWave heightAir tempDewpointWater temp
2017-Nov-12 03:08N 38°10' W 030°52'211.0
2017-Nov-12 02:57N 38°10' W 030°49'510.8
2017-Nov-12 02:30N 38°10' W 030°43'611.1
2017-Nov-12 02:00N 38°10' W 030°36'611.1
2017-Nov-12 01:30N 38°10' W 030°29'611.2
2017-Nov-12 01:00N 38°10' W 030°22'510.8
2017-Nov-12 00:30N 38°10' W 030°15'611.2
2017-Nov-12 00:00N 38°10' W 030°08'611.3
2017-Nov-11 23:30N 38°10' W 030°01'611.3
2017-Nov-11 23:00N 38°10' W 029°54'510.9
2017-Nov-11 22:30N 38°10' W 029°47'611.2
2017-Nov-11 22:00N 38°10' W 029°40'611.1
2017-Nov-11 21:30N 38°10' W 029°33'611.1
2017-Nov-11 21:01N 38°10' W 029°26'510.8
2017-Nov-11 20:30N 38°10' W 029°19'510.9
2017-Nov-11 20:00N 38°10' W 029°12'510.8
2017-Nov-11 19:30N 38°10' W 029°05'510.1
2017-Nov-11 19:00N 38°10' W 028°58'510.2
2017-Nov-11 18:30N 38°09' W 028°52'510.3
2017-Nov-11 18:00N 38°09' W 028°45'510.0
2017-Nov-11 17:30N 38°09' W 028°39'5 9.8
2017-Nov-11 17:00N 38°09' W 028°33'5 9.9
2017-Nov-11 16:30N 38°09' W 028°27'510.3
2017-Nov-11 16:00N 38°08' W 028°20'510.4
2017-Nov-11 15:30N 38°08' W 028°13'510.4
2017-Nov-11 15:00N 38°08' W 028°07'510.5
2017-Nov-11 14:30N 38°08' W 028°00'510.5
2017-Nov-11 14:00N 38°08' W 027°53'510.6
2017-Nov-11 13:30N 38°08' W 027°47'510.8
2017-Nov-11 13:00N 38°08' W 027°40'510.5
2017-Nov-11 12:30N 38°07' W 027°33'510.0
2017-Nov-11 12:00N 38°07' W 027°27'510.1
2017-Nov-11 11:30N 38°07' W 027°20'510.5
2017-Nov-11 11:00N 38°07' W 027°14'510.6
2017-Nov-11 10:30N 38°07' W 027°07'510.3
2017-Nov-11 10:00N 38°07' W 027°00'510.3
2017-Nov-11 09:30N 38°06' W 026°54'611.7
2017-Nov-11 09:00N 38°06' W 026°46'713.1
2017-Nov-11 08:30N 38°06' W 026°38'713.0
2017-Nov-11 08:00N 38°06' W 026°30'713.3
2017-Nov-11 07:30N 38°06' W 026°21'612.8
2017-Nov-11 07:01N 38°06' W 026°13'612.9
2017-Nov-11 06:30N 38°06' W 026°05'713.5
2017-Nov-11 06:00N 38°05' W 025°57'713.3
2017-Nov-11 05:30N 38°05' W 025°48'713.1
2017-Nov-11 05:00N 38°05' W 025°40'713.0
2017-Nov-11 04:30N 38°04' W 025°32'612.9
2017-Nov-11 04:00N 38°04' W 025°23'613.0
2017-Nov-11 03:30N 38°04' W 025°15'613.0
2017-Nov-11 03:00N 38°04' W 025°07'612.8
2017-Nov-11 02:30N 38°04' W 024°59'613.0
2017-Nov-11 02:01N 38°03' W 024°51'612.7
2017-Nov-11 01:30N 38°03' W 024°42'612.6
2017-Nov-11 01:00N 38°02' W 024°34'612.7
2017-Nov-11 00:30N 38°02' W 024°26'612.7
2017-Nov-11 00:00N 38°01' W 024°18'612.7
2017-Nov-10 23:30N 38°01' W 024°10'612.3
2017-Nov-10 23:00N 38°00' W 024°03'612.3
2017-Nov-10 22:30N 37°60' W 023°55'612.3
2017-Nov-10 22:00N 37°59' W 023°47'612.6
2017-Nov-10 21:30N 37°59' W 023°39'612.8
2017-Nov-10 21:00N 37°58' W 023°31'612.7
2017-Nov-10 20:30N 37°57' W 023°23'612.5
2017-Nov-10 20:01N 37°57' W 023°15'612.6
2017-Nov-10 19:30N 37°56' W 023°07'1812.6
2017-Nov-10 18:04N 37°55' W 022°44'512.7
2017-Nov-10 17:38N 37°54' W 022°37'211.9
2017-Nov-10 17:28N 37°54' W 022°35'510.8
2017-Nov-10 17:01N 37°54' W 022°29'611.0
2017-Nov-10 16:29N 37°53' W 022°21'610.9
2017-Nov-10 15:57N 37°53' W 022°14'510.9
2017-Nov-10 15:29N 37°52' W 022°08'810.9
2017-Nov-10 14:45N 37°52' W 021°58'  
2017-Nov-08 03:30N 36°17' W 009°12'5 9.9
2017-Nov-08 03:00N 36°16' W 009°06'510.0
2017-Nov-08 02:30N 36°15' W 008°60'510.0
2017-Nov-08 02:00N 36°14' W 008°54'910.1
2017-Nov-08 01:08N 36°14' W 008°43'110.1
2017-Nov-08 01:00N 36°14' W 008°41'10310.5
2017-Nov-07 15:14N 36°02' W 006°35'410.4
2017-Nov-07 14:48N 36°02' W 006°29'310.7
2017-Nov-07 14:30N 36°01' W 006°26'611.1
2017-Nov-07 14:00N 36°01' W 006°19'611.8
2017-Nov-07 13:30N 36°00' W 006°12'611.8
2017-Nov-07 13:00N 35°59' W 006°04'611.9
2017-Nov-07 12:30N 35°59' W 005°57'611.8
2017-Nov-07 12:00N 35°59' W 005°50'713.7
2017-Nov-07 11:30N 35°58' W 005°41'611.9
2017-Nov-07 11:00N 35°59' W 005°34'510.6
2017-Nov-07 10:30N 36°00' W 005°28'5 9.2
2017-Nov-07 10:00N 36°03' W 005°24'4 7.3
2017-Nov-07 09:30N 36°07' W 005°22'0 0.3
2017-Nov-07 08:47N 36°07' W 005°22'0 0.0
2017-Nov-07 08:26N 36°07' W 005°22'  
2017-Nov-02 18:10N 36°02' W 005°14'212.1
2017-Nov-02 18:00N 36°01' W 005°16'715.0
2017-Nov-02 17:31N 35°59' W 005°25'  

Dump ship's entire track history